sensor_id;sensor_type;location;lat;lon;timestamp;temperature;humidity
7700;DHT22;3892;47.794;19.126;2023-01-15T00:01:50;10.80;44.00
7700;DHT22;3892;47.794;19.126;2023-01-15T00:04:19;11.00;44.20
7700;DHT22;3892;47.794;19.126;2023-01-15T00:06:46;11.00;43.90
7700;DHT22;3892;47.794;19.126;2023-01-15T00:09:14;11.10;43.90
7700;DHT22;3892;47.794;19.126;2023-01-15T00:11:41;11.00;43.60
7700;DHT22;3892;47.794;19.126;2023-01-15T00:14:08;11.00;43.70
7700;DHT22;3892;47.794;19.126;2023-01-15T00:16:37;10.90;43.70
7700;DHT22;3892;47.794;19.126;2023-01-15T00:19:05;11.00;43.90
7700;DHT22;3892;47.794;19.126;2023-01-15T00:21:36;11.00;43.80
7700;DHT22;3892;47.794;19.126;2023-01-15T00:24:04;10.80;43.60
7700;DHT22;3892;47.794;19.126;2023-01-15T00:26:48;10.70;43.80
7700;DHT22;3892;47.794;19.126;2023-01-15T00:29:33;10.60;43.80
7700;DHT22;3892;47.794;19.126;2023-01-15T00:32:02;10.60;43.90
7700;DHT22;3892;47.794;19.126;2023-01-15T00:34:30;10.50;44.00
7700;DHT22;3892;47.794;19.126;2023-01-15T00:36:58;10.50;44.00
7700;DHT22;3892;47.794;19.126;2023-01-15T00:39:26;10.50;44.00
7700;DHT22;3892;47.794;19.126;2023-01-15T00:41:53;10.50;44.10
7700;DHT22;3892;47.794;19.126;2023-01-15T00:44:20;10.40;44.10
7700;DHT22;3892;47.794;19.126;2023-01-15T00:46:50;10.30;44.00
7700;DHT22;3892;47.794;19.126;2023-01-15T00:49:19;10.20;44.10
7700;DHT22;3892;47.794;19.126;2023-01-15T00:51:47;10.10;44.10
7700;DHT22;3892;47.794;19.126;2023-01-15T00:54:17;10.10;44.40
7700;DHT22;3892;47.794;19.126;2023-01-15T00:56:44;10.10;44.40
7700;DHT22;3892;47.794;19.126;2023-01-15T00:59:12;10.10;44.40
7700;DHT22;3892;47.794;19.126;2023-01-15T01:01:39;10.20;44.20
7700;DHT22;3892;47.794;19.126;2023-01-15T01:04:06;10.20;44.20
7700;DHT22;3892;47.794;19.126;2023-01-15T01:06:34;10.10;44.20
7700;DHT22;3892;47.794;19.126;2023-01-15T01:09:01;10.20;44.30
7700;DHT22;3892;47.794;19.126;2023-01-15T01:11:31;10.30;44.30
7700;DHT22;3892;47.794;19.126;2023-01-15T01:13:59;10.40;44.20
7700;DHT22;3892;47.794;19.126;2023-01-15T01:16:30;10.40;43.90
7700;DHT22;3892;47.794;19.126;2023-01-15T01:19:01;10.40;43.90
7700;DHT22;3892;47.794;19.126;2023-01-15T01:21:29;10.40;43.60
7700;DHT22;3892;47.794;19.126;2023-01-15T01:23:58;10.40;43.70
7700;DHT22;3892;47.794;19.126;2023-01-15T01:26:25;10.40;43.70
7700;DHT22;3892;47.794;19.126;2023-01-15T01:28:55;10.30;43.60
7700;DHT22;3892;47.794;19.126;2023-01-15T01:31:23;10.30;43.70
7700;DHT22;3892;47.794;19.126;2023-01-15T01:33:53;10.20;43.60
7700;DHT22;3892;47.794;19.126;2023-01-15T01:36:25;10.20;43.80
7700;DHT22;3892;47.794;19.126;2023-01-15T01:38:53;10.30;43.50
7700;DHT22;3892;47.794;19.126;2023-01-15T01:41:20;10.20;43.20
7700;DHT22;3892;47.794;19.126;2023-01-15T01:43:53;10.20;43.20
7700;DHT22;3892;47.794;19.126;2023-01-15T01:46:22;10.10;43.30
7700;DHT22;3892;47.794;19.126;2023-01-15T01:48:51;9.90;44.80
7700;DHT22;3892;47.794;19.126;2023-01-15T01:51:22;9.80;44.40
7700;DHT22;3892;47.794;19.126;2023-01-15T01:53:51;9.80;45.10
7700;DHT22;3892;47.794;19.126;2023-01-15T01:56:18;9.80;44.60
7700;DHT22;3892;47.794;19.126;2023-01-15T01:58:51;9.90;44.50
7700;DHT22;3892;47.794;19.126;2023-01-15T02:01:18;9.90;44.50
7700;DHT22;3892;47.794;19.126;2023-01-15T02:03:47;9.90;44.50
7700;DHT22;3892;47.794;19.126;2023-01-15T02:06:15;9.90;44.30
7700;DHT22;3892;47.794;19.126;2023-01-15T02:08:43;9.80;44.40
7700;DHT22;3892;47.794;19.126;2023-01-15T02:11:15;9.70;44.30
7700;DHT22;3892;47.794;19.126;2023-01-15T02:13:52;9.70;44.50
7700;DHT22;3892;47.794;19.126;2023-01-15T02:16:22;9.70;44.60
7700;DHT22;3892;47.794;19.126;2023-01-15T02:18:57;9.60;44.60
7700;DHT22;3892;47.794;19.126;2023-01-15T02:21:37;9.60;44.50
7700;DHT22;3892;47.794;19.126;2023-01-15T02:24:14;9.60;44.50
7700;DHT22;3892;47.794;19.126;2023-01-15T02:27:08;9.50;44.50
7700;DHT22;3892;47.794;19.126;2023-01-15T02:29:43;9.60;44.70
7700;DHT22;3892;47.794;19.126;2023-01-15T02:32:15;9.70;44.60
7700;DHT22;3892;47.794;19.126;2023-01-15T02:34:48;9.70;44.50
7700;DHT22;3892;47.794;19.126;2023-01-15T02:37:21;9.70;44.50
7700;DHT22;3892;47.794;19.126;2023-01-15T02:39:51;9.70;44.50
7700;DHT22;3892;47.794;19.126;2023-01-15T02:42:25;9.80;44.50
7700;DHT22;3892;47.794;19.126;2023-01-15T02:44:54;9.70;44.30
7700;DHT22;3892;47.794;19.126;2023-01-15T02:47:28;9.70;44.40
7700;DHT22;3892;47.794;19.126;2023-01-15T02:50:00;9.70;44.50
7700;DHT22;3892;47.794;19.126;2023-01-15T02:52:37;9.70;44.50
7700;DHT22;3892;47.794;19.126;2023-01-15T02:55:09;9.70;44.50
7700;DHT22;3892;47.794;19.126;2023-01-15T02:57:45;9.70;44.40
7700;DHT22;3892;47.794;19.126;2023-01-15T03:00:16;9.70;44.40
7700;DHT22;3892;47.794;19.126;2023-01-15T03:02:50;9.60;44.30
7700;DHT22;3892;47.794;19.126;2023-01-15T03:05:22;9.70;44.50
7700;DHT22;3892;47.794;19.126;2023-01-15T03:07:52;9.70;44.40
7700;DHT22;3892;47.794;19.126;2023-01-15T03:10:26;9.70;44.50
7700;DHT22;3892;47.794;19.126;2023-01-15T03:13:00;9.70;44.40
7700;DHT22;3892;47.794;19.126;2023-01-15T03:15:43;9.60;44.40
7700;DHT22;3892;47.794;19.126;2023-01-15T03:18:34;9.60;44.40
7700;DHT22;3892;47.794;19.126;2023-01-15T03:21:06;9.70;44.50
7700;DHT22;3892;47.794;19.126;2023-01-15T03:23:36;9.70;44.50
7700;DHT22;3892;47.794;19.126;2023-01-15T03:26:04;9.70;44.50
7700;DHT22;3892;47.794;19.126;2023-01-15T03:28:39;9.70;44.60
7700;DHT22;3892;47.794;19.126;2023-01-15T03:31:08;9.80;44.50
7700;DHT22;3892;47.794;19.126;2023-01-15T03:33:35;9.70;44.50
7700;DHT22;3892;47.794;19.126;2023-01-15T03:36:06;9.80;44.50
7700;DHT22;3892;47.794;19.126;2023-01-15T03:38:40;9.80;44.60
7700;DHT22;3892;47.794;19.126;2023-01-15T03:41:20;9.70;44.50
7700;DHT22;3892;47.794;19.126;2023-01-15T03:44:01;9.70;44.70
7700;DHT22;3892;47.794;19.126;2023-01-15T03:46:53;9.80;44.90
7700;DHT22;3892;47.794;19.126;2023-01-15T03:49:28;9.80;44.70
7700;DHT22;3892;47.794;19.126;2023-01-15T03:52:02;9.80;44.70
7700;DHT22;3892;47.794;19.126;2023-01-15T03:54:43;9.80;44.80
7700;DHT22;3892;47.794;19.126;2023-01-15T03:57:16;9.80;44.50
7700;DHT22;3892;47.794;19.126;2023-01-15T03:59:52;9.80;44.20
7700;DHT22;3892;47.794;19.126;2023-01-15T04:02:21;9.90;44.50
7700;DHT22;3892;47.794;19.126;2023-01-15T04:04:50;10.00;43.50
7700;DHT22;3892;47.794;19.126;2023-01-15T04:07:18;9.90;44.00
7700;DHT22;3892;47.794;19.126;2023-01-15T04:09:46;10.00;43.30
7700;DHT22;3892;47.794;19.126;2023-01-15T04:12:14;10.00;43.20
7700;DHT22;3892;47.794;19.126;2023-01-15T04:14:45;10.00;43.10
7700;DHT22;3892;47.794;19.126;2023-01-15T04:17:18;9.90;43.90
7700;DHT22;3892;47.794;19.126;2023-01-15T04:19:45;9.80;43.90
7700;DHT22;3892;47.794;19.126;2023-01-15T04:22:13;9.70;44.10
7700;DHT22;3892;47.794;19.126;2023-01-15T04:24:40;9.70;44.20
7700;DHT22;3892;47.794;19.126;2023-01-15T04:27:07;9.50;44.30
7700;DHT22;3892;47.794;19.126;2023-01-15T04:29:34;9.60;44.50
7700;DHT22;3892;47.794;19.126;2023-01-15T04:32:02;9.50;44.50
7700;DHT22;3892;47.794;19.126;2023-01-15T04:34:30;9.60;44.70
7700;DHT22;3892;47.794;19.126;2023-01-15T04:36:59;9.60;44.70
7700;DHT22;3892;47.794;19.126;2023-01-15T04:39:26;9.60;44.50
7700;DHT22;3892;47.794;19.126;2023-01-15T04:41:53;9.70;44.70
7700;DHT22;3892;47.794;19.126;2023-01-15T04:44:37;9.70;44.60
7700;DHT22;3892;47.794;19.126;2023-01-15T04:47:04;9.60;44.50
7700;DHT22;3892;47.794;19.126;2023-01-15T04:49:33;9.60;44.50
7700;DHT22;3892;47.794;19.126;2023-01-15T04:52:01;9.60;44.60
7700;DHT22;3892;47.794;19.126;2023-01-15T04:54:28;9.70;44.60
7700;DHT22;3892;47.794;19.126;2023-01-15T04:56:55;9.70;44.50
7700;DHT22;3892;47.794;19.126;2023-01-15T04:59:24;9.70;44.60
7700;DHT22;3892;47.794;19.126;2023-01-15T05:01:51;9.70;44.60
7700;DHT22;3892;47.794;19.126;2023-01-15T05:04:19;9.70;44.50
7700;DHT22;3892;47.794;19.126;2023-01-15T05:06:47;9.70;44.50
7700;DHT22;3892;47.794;19.126;2023-01-15T05:09:14;9.70;44.30
7700;DHT22;3892;47.794;19.126;2023-01-15T05:11:41;9.70;44.60
7700;DHT22;3892;47.794;19.126;2023-01-15T05:14:08;9.80;44.60
7700;DHT22;3892;47.794;19.126;2023-01-15T05:16:35;9.80;44.40
7700;DHT22;3892;47.794;19.126;2023-01-15T05:19:04;9.80;44.20
7700;DHT22;3892;47.794;19.126;2023-01-15T05:21:34;9.70;44.20
7700;DHT22;3892;47.794;19.126;2023-01-15T05:24:05;9.60;44.30
7700;DHT22;3892;47.794;19.126;2023-01-15T05:26:34;9.50;44.40
7700;DHT22;3892;47.794;19.126;2023-01-15T05:29:02;9.50;44.40
7700;DHT22;3892;47.794;19.126;2023-01-15T05:31:30;9.40;44.40
7700;DHT22;3892;47.794;19.126;2023-01-15T05:33:59;9.40;44.60
7700;DHT22;3892;47.794;19.126;2023-01-15T05:36:28;9.40;44.70
7700;DHT22;3892;47.794;19.126;2023-01-15T05:38:56;9.40;44.60
7700;DHT22;3892;47.794;19.126;2023-01-15T05:41:28;9.50;44.70
7700;DHT22;3892;47.794;19.126;2023-01-15T05:44:14;9.50;44.70
7700;DHT22;3892;47.794;19.126;2023-01-15T05:46:42;9.50;44.70
7700;DHT22;3892;47.794;19.126;2023-01-15T05:49:11;9.40;44.50
7700;DHT22;3892;47.794;19.126;2023-01-15T05:51:39;9.40;44.50
7700;DHT22;3892;47.794;19.126;2023-01-15T05:54:10;9.30;44.60
7700;DHT22;3892;47.794;19.126;2023-01-15T05:56:38;9.30;44.80
7700;DHT22;3892;47.794;19.126;2023-01-15T05:59:06;9.20;44.80
7700;DHT22;3892;47.794;19.126;2023-01-15T06:01:33;9.20;45.50
7700;DHT22;3892;47.794;19.126;2023-01-15T06:04:02;9.10;45.00
7700;DHT22;3892;47.794;19.126;2023-01-15T06:06:30;9.10;45.10
7700;DHT22;3892;47.794;19.126;2023-01-15T06:08:58;9.10;45.10
7700;DHT22;3892;47.794;19.126;2023-01-15T06:11:25;9.20;45.20
7700;DHT22;3892;47.794;19.126;2023-01-15T06:13:53;9.20;45.20
7700;DHT22;3892;47.794;19.126;2023-01-15T06:16:20;9.20;45.30
7700;DHT22;3892;47.794;19.126;2023-01-15T06:18:50;9.20;45.30
7700;DHT22;3892;47.794;19.126;2023-01-15T06:21:17;9.10;45.20
7700;DHT22;3892;47.794;19.126;2023-01-15T06:23:44;9.20;45.40
7700;DHT22;3892;47.794;19.126;2023-01-15T06:26:12;9.20;45.40
7700;DHT22;3892;47.794;19.126;2023-01-15T06:28:40;9.20;45.40
7700;DHT22;3892;47.794;19.126;2023-01-15T06:31:09;9.30;45.40
7700;DHT22;3892;47.794;19.126;2023-01-15T06:33:37;9.30;45.90
7700;DHT22;3892;47.794;19.126;2023-01-15T06:36:05;9.30;45.40
7700;DHT22;3892;47.794;19.126;2023-01-15T06:38:33;9.30;45.50
7700;DHT22;3892;47.794;19.126;2023-01-15T06:41:03;9.20;45.40
7700;DHT22;3892;47.794;19.126;2023-01-15T06:43:51;9.20;45.60
7700;DHT22;3892;47.794;19.126;2023-01-15T06:46:37;9.20;45.70
7700;DHT22;3892;47.794;19.126;2023-01-15T06:49:21;9.30;45.70
7700;DHT22;3892;47.794;19.126;2023-01-15T06:51:48;9.40;45.70
7700;DHT22;3892;47.794;19.126;2023-01-15T06:54:15;9.40;45.50
7700;DHT22;3892;47.794;19.126;2023-01-15T06:56:42;9.40;45.50
7700;DHT22;3892;47.794;19.126;2023-01-15T06:59:10;9.40;45.50
7700;DHT22;3892;47.794;19.126;2023-01-15T07:01:38;9.60;45.70
7700;DHT22;3892;47.794;19.126;2023-01-15T07:04:05;9.70;45.50
7700;DHT22;3892;47.794;19.126;2023-01-15T07:06:32;9.70;45.20
7700;DHT22;3892;47.794;19.126;2023-01-15T07:08:59;9.60;45.30
7700;DHT22;3892;47.794;19.126;2023-01-15T07:11:26;9.50;45.40
7700;DHT22;3892;47.794;19.126;2023-01-15T07:13:53;9.60;45.50
7700;DHT22;3892;47.794;19.126;2023-01-15T07:16:30;9.70;45.40
7700;DHT22;3892;47.794;19.126;2023-01-15T07:18:58;9.80;45.30
7700;DHT22;3892;47.794;19.126;2023-01-15T07:21:25;9.80;45.20
7700;DHT22;3892;47.794;19.126;2023-01-15T07:23:53;9.80;45.20
7700;DHT22;3892;47.794;19.126;2023-01-15T07:26:20;9.80;45.20
7700;DHT22;3892;47.794;19.126;2023-01-15T07:28:47;9.80;45.20
7700;DHT22;3892;47.794;19.126;2023-01-15T07:31:14;9.80;45.30
7700;DHT22;3892;47.794;19.126;2023-01-15T07:33:41;9.70;45.30
7700;DHT22;3892;47.794;19.126;2023-01-15T07:36:09;9.70;45.30
7700;DHT22;3892;47.794;19.126;2023-01-15T07:38:36;9.80;45.40
7700;DHT22;3892;47.794;19.126;2023-01-15T07:41:04;9.80;45.30
7700;DHT22;3892;47.794;19.126;2023-01-15T07:43:48;9.80;45.40
7700;DHT22;3892;47.794;19.126;2023-01-15T07:46:33;9.70;45.40
7700;DHT22;3892;47.794;19.126;2023-01-15T07:49:17;9.70;45.70
7700;DHT22;3892;47.794;19.126;2023-01-15T07:52:03;9.70;45.80
7700;DHT22;3892;47.794;19.126;2023-01-15T07:54:30;9.60;45.80
7700;DHT22;3892;47.794;19.126;2023-01-15T07:56:57;9.60;45.80
7700;DHT22;3892;47.794;19.126;2023-01-15T07:59:24;9.50;45.90
7700;DHT22;3892;47.794;19.126;2023-01-15T08:01:51;9.50;46.20
7700;DHT22;3892;47.794;19.126;2023-01-15T08:04:18;9.50;46.20
7700;DHT22;3892;47.794;19.126;2023-01-15T08:06:45;9.40;46.20
7700;DHT22;3892;47.794;19.126;2023-01-15T08:09:14;9.40;46.40
7700;DHT22;3892;47.794;19.126;2023-01-15T08:11:41;9.30;46.50
7700;DHT22;3892;47.794;19.126;2023-01-15T08:14:25;9.30;46.60
7700;DHT22;3892;47.794;19.126;2023-01-15T08:17:10;9.30;46.80
7700;DHT22;3892;47.794;19.126;2023-01-15T08:19:44;9.20;46.80
7700;DHT22;3892;47.794;19.126;2023-01-15T08:22:11;9.20;47.20
7700;DHT22;3892;47.794;19.126;2023-01-15T08:24:39;9.10;47.20
7700;DHT22;3892;47.794;19.126;2023-01-15T08:27:06;9.10;47.40
7700;DHT22;3892;47.794;19.126;2023-01-15T08:29:33;9.10;47.60
7700;DHT22;3892;47.794;19.126;2023-01-15T08:32:00;9.10;47.60
7700;DHT22;3892;47.794;19.126;2023-01-15T08:34:27;9.10;47.50
7700;DHT22;3892;47.794;19.126;2023-01-15T08:36:54;9.10;47.50
7700;DHT22;3892;47.794;19.126;2023-01-15T08:39:25;9.20;47.70
7700;DHT22;3892;47.794;19.126;2023-01-15T08:41:53;9.30;47.70
7700;DHT22;3892;47.794;19.126;2023-01-15T08:44:21;9.30;47.50
7700;DHT22;3892;47.794;19.126;2023-01-15T08:46:49;9.30;47.70
7700;DHT22;3892;47.794;19.126;2023-01-15T08:49:17;9.30;47.50
7700;DHT22;3892;47.794;19.126;2023-01-15T08:51:44;9.30;47.40
7700;DHT22;3892;47.794;19.126;2023-01-15T08:54:14;9.40;47.50
7700;DHT22;3892;47.794;19.126;2023-01-15T08:56:41;9.50;47.50
7700;DHT22;3892;47.794;19.126;2023-01-15T08:59:11;9.60;47.40
7700;DHT22;3892;47.794;19.126;2023-01-15T09:01:38;9.60;47.10
7700;DHT22;3892;47.794;19.126;2023-01-15T09:04:05;9.70;47.10
7700;DHT22;3892;47.794;19.126;2023-01-15T09:06:33;9.70;47.00
7700;DHT22;3892;47.794;19.126;2023-01-15T09:09:00;9.80;47.00
7700;DHT22;3892;47.794;19.126;2023-01-15T09:11:27;9.80;46.90
7700;DHT22;3892;47.794;19.126;2023-01-15T09:13:54;9.90;47.00
7700;DHT22;3892;47.794;19.126;2023-01-15T09:16:22;9.80;47.00
7700;DHT22;3892;47.794;19.126;2023-01-15T09:18:51;9.80;47.00
7700;DHT22;3892;47.794;19.126;2023-01-15T09:21:18;9.80;47.10
7700;DHT22;3892;47.794;19.126;2023-01-15T09:23:45;9.70;47.00
7700;DHT22;3892;47.794;19.126;2023-01-15T09:26:28;9.70;47.30
7700;DHT22;3892;47.794;19.126;2023-01-15T09:28:55;9.60;47.40
7700;DHT22;3892;47.794;19.126;2023-01-15T09:31:24;9.50;47.50
7700;DHT22;3892;47.794;19.126;2023-01-15T09:33:51;9.50;47.60
7700;DHT22;3892;47.794;19.126;2023-01-15T09:36:21;9.50;47.70
7700;DHT22;3892;47.794;19.126;2023-01-15T09:38:49;9.50;48.40
7700;DHT22;3892;47.794;19.126;2023-01-15T09:41:16;9.60;47.80
7700;DHT22;3892;47.794;19.126;2023-01-15T09:44:18;9.70;47.80
7700;DHT22;3892;47.794;19.126;2023-01-15T09:46:57;9.70;47.60
7700;DHT22;3892;47.794;19.126;2023-01-15T09:49:35;9.80;47.70
7700;DHT22;3892;47.794;19.126;2023-01-15T09:52:11;9.90;47.60
7700;DHT22;3892;47.794;19.126;2023-01-15T09:54:50;9.90;47.50
7700;DHT22;3892;47.794;19.126;2023-01-15T09:57:20;10.00;46.60
7700;DHT22;3892;47.794;19.126;2023-01-15T09:59:50;10.00;46.50
7700;DHT22;3892;47.794;19.126;2023-01-15T10:02:26;10.10;46.50
7700;DHT22;3892;47.794;19.126;2023-01-15T10:04:58;10.20;46.10
7700;DHT22;3892;47.794;19.126;2023-01-15T10:07:35;10.20;46.10
7700;DHT22;3892;47.794;19.126;2023-01-15T10:10:10;10.20;46.00
7700;DHT22;3892;47.794;19.126;2023-01-15T10:12:38;10.20;46.00
7700;DHT22;3892;47.794;19.126;2023-01-15T10:15:30;10.30;45.80
7700;DHT22;3892;47.794;19.126;2023-01-15T10:18:15;10.30;45.80
7700;DHT22;3892;47.794;19.126;2023-01-15T10:21:25;10.40;45.80
7700;DHT22;3892;47.794;19.126;2023-01-15T10:24:08;10.40;45.80
7700;DHT22;3892;47.794;19.126;2023-01-15T10:26:39;10.40;45.70
7700;DHT22;3892;47.794;19.126;2023-01-15T10:29:16;10.50;45.80
7700;DHT22;3892;47.794;19.126;2023-01-15T10:31:49;10.50;45.60
7700;DHT22;3892;47.794;19.126;2023-01-15T10:35:03;10.50;45.70
7700;DHT22;3892;47.794;19.126;2023-01-15T10:37:37;10.60;45.90
7700;DHT22;3892;47.794;19.126;2023-01-15T10:40:29;10.50;45.40
7700;DHT22;3892;47.794;19.126;2023-01-15T10:43:02;10.60;45.60
7700;DHT22;3892;47.794;19.126;2023-01-15T10:45:35;10.60;45.40
7700;DHT22;3892;47.794;19.126;2023-01-15T10:48:09;10.60;45.20
7700;DHT22;3892;47.794;19.126;2023-01-15T10:50:38;10.50;44.80
7700;DHT22;3892;47.794;19.126;2023-01-15T10:53:12;10.50;44.90
7700;DHT22;3892;47.794;19.126;2023-01-15T10:55:44;10.50;45.00
7700;DHT22;3892;47.794;19.126;2023-01-15T10:58:19;10.50;45.00
7700;DHT22;3892;47.794;19.126;2023-01-15T11:00:53;10.60;45.20
7700;DHT22;3892;47.794;19.126;2023-01-15T11:03:30;10.60;45.20
7700;DHT22;3892;47.794;19.126;2023-01-15T11:05:59;10.80;45.20
7700;DHT22;3892;47.794;19.126;2023-01-15T11:08:26;10.90;45.00
7700;DHT22;3892;47.794;19.126;2023-01-15T11:10:56;10.90;44.80
7700;DHT22;3892;47.794;19.126;2023-01-15T11:13:25;11.00;44.80
7700;DHT22;3892;47.794;19.126;2023-01-15T11:16:13;11.10;44.50
7700;DHT22;3892;47.794;19.126;2023-01-15T11:19:00;11.10;44.50
7700;DHT22;3892;47.794;19.126;2023-01-15T11:21:48;11.10;44.40
7700;DHT22;3892;47.794;19.126;2023-01-15T11:24:17;11.00;44.10
7700;DHT22;3892;47.794;19.126;2023-01-15T11:26:47;11.10;44.10
7700;DHT22;3892;47.794;19.126;2023-01-15T11:29:24;11.20;44.40
7700;DHT22;3892;47.794;19.126;2023-01-15T11:31:54;11.30;44.80
7700;DHT22;3892;47.794;19.126;2023-01-15T11:34:21;11.40;44.50
7700;DHT22;3892;47.794;19.126;2023-01-15T11:37:00;11.40;44.00
7700;DHT22;3892;47.794;19.126;2023-01-15T11:39:28;11.30;43.80
7700;DHT22;3892;47.794;19.126;2023-01-15T11:42:00;11.40;44.00
7700;DHT22;3892;47.794;19.126;2023-01-15T11:44:52;11.40;43.90
7700;DHT22;3892;47.794;19.126;2023-01-15T11:47:37;11.40;44.10
7700;DHT22;3892;47.794;19.126;2023-01-15T11:50:22;11.50;44.20
7700;DHT22;3892;47.794;19.126;2023-01-15T11:53:15;11.60;44.10
7700;DHT22;3892;47.794;19.126;2023-01-15T11:55:51;11.60;44.10
7700;DHT22;3892;47.794;19.126;2023-01-15T11:58:18;11.60;44.20
7700;DHT22;3892;47.794;19.126;2023-01-15T12:00:49;11.60;44.20
7700;DHT22;3892;47.794;19.126;2023-01-15T12:03:19;11.70;44.20
7700;DHT22;3892;47.794;19.126;2023-01-15T12:05:54;11.70;44.00
7700;DHT22;3892;47.794;19.126;2023-01-15T12:11:33;11.60;43.10
7700;DHT22;3892;47.794;19.126;2023-01-15T12:14:25;11.60;43.20
7700;DHT22;3892;47.794;19.126;2023-01-15T12:16:58;11.70;43.10
7700;DHT22;3892;47.794;19.126;2023-01-15T12:19:32;11.70;42.70
7700;DHT22;3892;47.794;19.126;2023-01-15T12:22:20;11.70;42.70
7700;DHT22;3892;47.794;19.126;2023-01-15T12:25:27;11.80;42.90
7700;DHT22;3892;47.794;19.126;2023-01-15T12:28:02;11.90;43.00
7700;DHT22;3892;47.794;19.126;2023-01-15T12:30:38;11.90;42.90
7700;DHT22;3892;47.794;19.126;2023-01-15T12:33:19;11.90;42.80
7700;DHT22;3892;47.794;19.126;2023-01-15T12:35:54;11.90;42.60
7700;DHT22;3892;47.794;19.126;2023-01-15T12:38:34;12.00;42.50
7700;DHT22;3892;47.794;19.126;2023-01-15T12:41:09;12.00;42.50
7700;DHT22;3892;47.794;19.126;2023-01-15T12:43:37;12.00;42.40
7700;DHT22;3892;47.794;19.126;2023-01-15T12:46:26;12.00;42.30
7700;DHT22;3892;47.794;19.126;2023-01-15T12:49:00;11.90;42.30
7700;DHT22;3892;47.794;19.126;2023-01-15T12:51:31;11.80;42.70
7700;DHT22;3892;47.794;19.126;2023-01-15T12:54:05;11.80;43.00
7700;DHT22;3892;47.794;19.126;2023-01-15T12:56:45;11.80;43.20
7700;DHT22;3892;47.794;19.126;2023-01-15T12:59:17;11.90;43.30
7700;DHT22;3892;47.794;19.126;2023-01-15T13:01:52;11.90;43.20
7700;DHT22;3892;47.794;19.126;2023-01-15T13:04:27;12.00;43.40
7700;DHT22;3892;47.794;19.126;2023-01-15T13:07:02;12.00;43.70
7700;DHT22;3892;47.794;19.126;2023-01-15T13:09:36;12.00;43.90
7700;DHT22;3892;47.794;19.126;2023-01-15T13:12:13;12.00;44.10
7700;DHT22;3892;47.794;19.126;2023-01-15T13:14:40;12.00;43.90
7700;DHT22;3892;47.794;19.126;2023-01-15T13:17:14;12.10;43.90
7700;DHT22;3892;47.794;19.126;2023-01-15T13:20:03;12.10;44.10
7700;DHT22;3892;47.794;19.126;2023-01-15T13:22:32;12.10;43.90
7700;DHT22;3892;47.794;19.126;2023-01-15T13:25:36;12.10;44.00
7700;DHT22;3892;47.794;19.126;2023-01-15T13:28:16;12.10;44.20
7700;DHT22;3892;47.794;19.126;2023-01-15T13:30:56;12.20;44.10
7700;DHT22;3892;47.794;19.126;2023-01-15T13:33:30;12.20;43.90
7700;DHT22;3892;47.794;19.126;2023-01-15T13:36:07;12.20;44.00
7700;DHT22;3892;47.794;19.126;2023-01-15T13:38:40;12.30;44.00
7700;DHT22;3892;47.794;19.126;2023-01-15T13:41:12;12.30;44.00
7700;DHT22;3892;47.794;19.126;2023-01-15T13:44:03;12.30;43.80
7700;DHT22;3892;47.794;19.126;2023-01-15T13:46:31;12.30;43.90
7700;DHT22;3892;47.794;19.126;2023-01-15T13:48:58;12.30;43.80
7700;DHT22;3892;47.794;19.126;2023-01-15T13:51:28;12.40;43.90
7700;DHT22;3892;47.794;19.126;2023-01-15T13:53:57;12.40;43.90
7700;DHT22;3892;47.794;19.126;2023-01-15T13:56:26;12.50;43.90
7700;DHT22;3892;47.794;19.126;2023-01-15T13:58:55;12.50;43.70
7700;DHT22;3892;47.794;19.126;2023-01-15T14:01:30;12.50;43.60
7700;DHT22;3892;47.794;19.126;2023-01-15T14:04:01;12.50;43.80
7700;DHT22;3892;47.794;19.126;2023-01-15T14:06:37;12.50;43.80
7700;DHT22;3892;47.794;19.126;2023-01-15T14:09:04;12.60;43.80
7700;DHT22;3892;47.794;19.126;2023-01-15T14:11:34;12.60;43.60
7700;DHT22;3892;47.794;19.126;2023-01-15T14:14:24;12.60;43.70
7700;DHT22;3892;47.794;19.126;2023-01-15T14:17:05;12.60;43.70
7700;DHT22;3892;47.794;19.126;2023-01-15T14:23:00;12.60;43.70
7700;DHT22;3892;47.794;19.126;2023-01-15T14:25:49;12.60;43.50
7700;DHT22;3892;47.794;19.126;2023-01-15T14:28:48;12.60;43.80
7700;DHT22;3892;47.794;19.126;2023-01-15T14:31:47;12.50;43.60
7700;DHT22;3892;47.794;19.126;2023-01-15T14:34:20;12.60;43.80
7700;DHT22;3892;47.794;19.126;2023-01-15T14:36:51;12.70;43.80
7700;DHT22;3892;47.794;19.126;2023-01-15T14:39:25;12.70;43.70
7700;DHT22;3892;47.794;19.126;2023-01-15T14:41:57;12.80;43.60
7700;DHT22;3892;47.794;19.126;2023-01-15T14:44:44;12.80;43.50
7700;DHT22;3892;47.794;19.126;2023-01-15T14:47:21;12.80;43.50
7700;DHT22;3892;47.794;19.126;2023-01-15T14:50:01;12.70;43.50
7700;DHT22;3892;47.794;19.126;2023-01-15T14:52:29;12.70;43.60
7700;DHT22;3892;47.794;19.126;2023-01-15T14:54:57;12.70;43.60
7700;DHT22;3892;47.794;19.126;2023-01-15T14:57:25;12.70;43.50
7700;DHT22;3892;47.794;19.126;2023-01-15T14:59:53;12.80;43.60
7700;DHT22;3892;47.794;19.126;2023-01-15T15:02:24;12.70;43.60
7700;DHT22;3892;47.794;19.126;2023-01-15T15:04:57;12.60;43.60
7700;DHT22;3892;47.794;19.126;2023-01-15T15:07:34;12.50;43.70
7700;DHT22;3892;47.794;19.126;2023-01-15T15:10:04;12.40;43.90
7700;DHT22;3892;47.794;19.126;2023-01-15T15:12:36;12.40;43.90
7700;DHT22;3892;47.794;19.126;2023-01-15T15:15:11;12.40;44.20
7700;DHT22;3892;47.794;19.126;2023-01-15T15:17:46;12.30;44.20
7700;DHT22;3892;47.794;19.126;2023-01-15T15:20:23;12.40;44.30
7700;DHT22;3892;47.794;19.126;2023-01-15T15:22:58;12.40;44.20
7700;DHT22;3892;47.794;19.126;2023-01-15T15:25:31;12.40;44.10
7700;DHT22;3892;47.794;19.126;2023-01-15T15:28:04;12.40;44.20
7700;DHT22;3892;47.794;19.126;2023-01-15T15:30:34;12.40;44.30
7700;DHT22;3892;47.794;19.126;2023-01-15T15:33:03;12.30;44.30
7700;DHT22;3892;47.794;19.126;2023-01-15T15:35:31;12.20;44.30
7700;DHT22;3892;47.794;19.126;2023-01-15T15:38:04;12.20;44.50
7700;DHT22;3892;47.794;19.126;2023-01-15T15:40:33;12.30;44.50
7700;DHT22;3892;47.794;19.126;2023-01-15T15:43:11;12.20;45.80
7700;DHT22;3892;47.794;19.126;2023-01-15T15:45:57;12.10;45.80
7700;DHT22;3892;47.794;19.126;2023-01-15T15:48:43;12.10;46.20
7700;DHT22;3892;47.794;19.126;2023-01-15T15:51:27;12.10;46.20
7700;DHT22;3892;47.794;19.126;2023-01-15T15:54:20;12.10;45.30
7700;DHT22;3892;47.794;19.126;2023-01-15T15:56:50;12.10;44.90
7700;DHT22;3892;47.794;19.126;2023-01-15T15:59:29;12.10;44.90
7700;DHT22;3892;47.794;19.126;2023-01-15T16:01:58;12.10;44.90
7700;DHT22;3892;47.794;19.126;2023-01-15T16:04:29;12.10;44.90
7700;DHT22;3892;47.794;19.126;2023-01-15T16:06:56;12.10;45.00
7700;DHT22;3892;47.794;19.126;2023-01-15T16:09:24;12.10;45.00
7700;DHT22;3892;47.794;19.126;2023-01-15T16:11:52;12.10;45.10
7700;DHT22;3892;47.794;19.126;2023-01-15T16:14:20;12.00;45.20
7700;DHT22;3892;47.794;19.126;2023-01-15T16:16:49;11.90;45.10
7700;DHT22;3892;47.794;19.126;2023-01-15T16:19:18;12.00;45.20
7700;DHT22;3892;47.794;19.126;2023-01-15T16:21:46;12.00;45.30
7700;DHT22;3892;47.794;19.126;2023-01-15T16:24:27;12.00;45.30
7700;DHT22;3892;47.794;19.126;2023-01-15T16:27:12;12.00;45.20
7700;DHT22;3892;47.794;19.126;2023-01-15T16:29:47;12.00;45.20
7700;DHT22;3892;47.794;19.126;2023-01-15T16:32:20;12.10;45.40
7700;DHT22;3892;47.794;19.126;2023-01-15T16:34:48;12.00;45.20
7700;DHT22;3892;47.794;19.126;2023-01-15T16:37:25;12.00;45.40